Time;durP1;ratioP1;P1;durP2;ratioP2;P2;SDS_P1;SDS_P2;PMS_P1;PMS_P2;Temp;Humidity;BMP_temperature;BMP_pressure;BME280_temperature;BME280_humidity;BME280_pressure;Samples;Min_cycle;Max_cycle;Signal;HPM_P1;HPM_P2
2023/01/01 00:00:09;;;;;;;5.45;2.70;;;;;;;12.25;98.52;99868.25;2088542;28;20040;-74
2023/01/01 00:01:15;;;;;;;7.38;3.58;;;;;;;12.24;98.13;99871.28;2100596;28;20419;-74
2023/01/01 00:02:18;;;;;;;14.88;8.40;;;;;;;12.24;97.93;99866.69;2090142;28;20076;-76
2023/01/01 00:03:20;;;;;;;25.83;14.98;;;;;;;12.26;97.74;99864.50;2082456;28;20044;-75
2023/01/01 00:04:22;;;;;;;12.00;6.35;;;;;;;12.26;97.70;99853.72;2076407;28;20412;-75
2023/01/01 00:05:28;;;;;;;5.38;2.97;;;;;;;12.23;97.38;99846.22;2082267;28;20041;-75
2023/01/01 00:06:30;;;;;;;4.18;2.30;;;;;;;12.20;97.35;99837.94;2091256;28;20107;-76
2023/01/01 00:07:34;;;;;;;3.85;2.10;;;;;;;12.22;97.48;99841.13;2090083;28;20088;-75
2023/01/01 00:08:36;;;;;;;4.90;2.40;;;;;;;12.24;97.60;99831.66;2083011;28;20088;-75
2023/01/01 00:11:06;;;;;;;6.07;2.60;;;;;;;12.27;97.58;99816.75;2097694;28;20051;-75
2023/01/01 00:12:08;;;;;;;5.25;2.70;;;;;;;12.29;97.88;99825.31;2092423;28;20503;-76
2023/01/01 00:13:13;;;;;;;5.60;2.72;;;;;;;12.37;97.97;99837.28;2098485;28;20321;-75
2023/01/01 00:14:18;;;;;;;9.73;2.78;;;;;;;12.39;97.76;99838.56;2098998;28;20040;-75
2023/01/01 00:15:22;;;;;;;4.47;2.67;;;;;;;12.35;97.45;99836.78;2099224;28;20040;-75
2023/01/01 00:16:24;;;;;;;5.85;2.72;;;;;;;12.37;97.51;99837.28;2098960;28;20059;-76
2023/01/01 00:17:29;;;;;;;6.93;2.78;;;;;;;12.38;97.58;99822.69;2106873;28;20036;-75
2023/01/01 00:18:35;;;;;;;6.93;2.90;;;;;;;12.39;97.31;99829.66;2098773;28;20040;-75
2023/01/01 00:19:37;;;;;;;5.88;2.70;;;;;;;12.37;96.92;99845.38;2098556;28;20044;-75
2023/01/01 00:20:45;;;;;;;6.30;2.78;;;;;;;12.36;96.98;99858.06;2098594;28;20037;-76
2023/01/01 00:21:47;;;;;;;4.07;2.60;;;;;;;12.39;96.91;99851.22;2107699;28;20036;-74
2023/01/01 00:22:50;;;;;;;5.32;2.55;;;;;;;12.40;97.05;99850.13;2114909;28;20048;-75
2023/01/01 00:23:53;;;;;;;5.07;2.40;;;;;;;12.41;97.18;99838.25;2115168;28;20046;-75
2023/01/01 00:24:55;;;;;;;6.72;3.20;;;;;;;12.25;96.91;99835.91;2114386;28;20066;-76
2023/01/01 00:25:57;;;;;;;4.22;2.50;;;;;;;12.11;96.63;99855.97;2102665;28;20037;-75
2023/01/01 00:26:59;;;;;;;5.63;2.92;;;;;;;12.11;97.43;99856.75;2106542;28;20503;-75
2023/01/01 00:28:05;;;;;;;6.38;2.60;;;;;;;12.18;97.72;99845.56;2106732;28;20043;-74
2023/01/01 00:29:08;;;;;;;4.45;2.30;;;;;;;12.23;97.67;99854.31;2098484;28;20040;-75
2023/01/01 00:30:15;;;;;;;6.50;2.58;;;;;;;12.27;97.84;99866.06;2101785;28;20036;-75
2023/01/01 00:31:22;;;;;;;14.45;8.10;;;;;;;12.34;98.03;99857.56;2112596;28;20039;-76
2023/01/01 00:32:28;;;;;;;6.97;3.55;;;;;;;12.39;98.04;99864.69;2104025;28;20039;-74
2023/01/01 00:33:31;;;;;;;8.07;3.35;;;;;;;12.41;97.87;99866.00;2098058;28;20024;-75
2023/01/01 00:34:34;;;;;;;5.78;3.22;;;;;;;12.43;97.50;99873.78;2081993;28;20041;-74
2023/01/01 00:35:39;;;;;;;4.88;2.42;;;;;;;12.44;97.32;99869.97;2074325;28;20060;-75
2023/01/01 00:36:41;;;;;;;4.30;2.40;;;;;;;12.46;97.66;99867.78;2096154;28;20056;-74
2023/01/01 00:37:44;;;;;;;5.85;2.63;;;;;;;12.45;97.22;99861.59;2098272;28;20036;-74
2023/01/01 00:38:47;;;;;;;4.85;2.22;;;;;;;12.45;97.19;99853.50;2098634;28;20036;-75
2023/01/01 00:39:49;;;;;;;5.05;2.25;;;;;;;12.46;97.18;99868.56;2098186;28;20404;-74
2023/01/01 00:40:55;;;;;;;4.38;2.00;;;;;;;12.48;97.20;99847.50;2098922;28;20090;-74
2023/01/01 00:41:58;;;;;;;4.47;2.25;;;;;;;12.49;97.06;99845.59;2105602;28;20535;-75
2023/01/01 00:43:00;;;;;;;4.32;2.35;;;;;;;12.51;96.89;99856.84;2089723;28;20531;-75
2023/01/01 00:44:05;;;;;;;8.10;2.50;;;;;;;12.50;96.86;99863.38;2079510;28;20033;-75
2023/01/01 00:45:11;;;;;;;4.95;2.30;;;;;;;12.54;97.23;99842.75;2099616;28;20039;-75
2023/01/01 00:46:14;;;;;;;4.25;2.28;;;;;;;12.49;96.94;99867.16;2098408;28;20044;-75
2023/01/01 00:47:18;;;;;;;5.10;2.28;;;;;;;12.51;97.10;99871.16;2106799;28;20042;-75
2023/01/01 00:48:26;;;;;;;3.60;2.08;;;;;;;12.56;97.01;99861.34;2107315;28;20032;-74
2023/01/01 00:49:28;;;;;;;5.35;2.50;;;;;;;12.56;96.61;99851.34;2098549;28;20047;-74
2023/01/01 00:50:30;;;;;;;4.40;2.30;;;;;;;12.51;96.44;99854.16;2089538;28;20044;-75
2023/01/01 00:51:32;;;;;;;4.15;2.20;;;;;;;12.49;96.62;99846.41;2089359;28;20724;-75
2023/01/01 00:52:34;;;;;;;3.60;2.10;;;;;;;12.49;96.83;99848.28;2097418;28;20033;-75
2023/01/01 00:53:37;;;;;;;4.93;2.38;;;;;;;12.53;96.91;99863.53;2078809;28;20533;-75
2023/01/01 00:54:41;;;;;;;6.60;3.83;;;;;;;12.53;96.72;99866.22;2081221;28;20041;-75
2023/01/01 00:55:44;;;;;;;6.45;4.03;;;;;;;12.53;96.37;99868.94;2081871;28;20052;-75
2023/01/01 00:56:46;;;;;;;7.88;4.80;;;;;;;12.53;96.02;99865.44;2089648;28;20029;-75
2023/01/01 00:57:51;;;;;;;11.40;6.25;;;;;;;12.50;95.99;99868.75;2097744;28;20049;-76
2023/01/01 00:58:56;;;;;;;7.80;4.53;;;;;;;12.52;96.22;99875.44;2097514;28;20040;-76
2023/01/01 01:00:00;;;;;;;11.70;4.35;;;;;;;12.55;96.51;99863.25;2097997;28;20036;-75
2023/01/01 01:01:05;;;;;;;5.10;2.88;;;;;;;12.56;96.34;99867.53;2088181;28;20033;-74
2023/01/01 01:02:12;;;;;;;5.53;2.75;;;;;;;12.57;96.41;99869.09;2104144;28;20040;-74
2023/01/01 01:03:27;;;;;;;6.20;3.13;;;;;;;12.63;96.44;99869.78;2097984;28;20508;-75
2023/01/01 01:04:31;;;;;;;5.63;2.78;;;;;;;12.69;96.35;99868.53;2100449;28;20036;-74
2023/01/01 01:05:36;;;;;;;6.88;3.45;;;;;;;12.70;96.25;99868.25;2089411;28;20484;-75
2023/01/01 01:06:38;;;;;;;5.88;3.08;;;;;;;12.72;95.77;99860.63;2090026;28;20516;-74
2023/01/01 01:07:43;;;;;;;8.02;3.55;;;;;;;12.70;95.48;99868.25;2090370;28;20732;-74
2023/01/01 01:08:46;;;;;;;6.18;3.53;;;;;;;12.69;95.34;99877.44;2089413;28;20037;-74
2023/01/01 01:09:49;;;;;;;8.32;4.00;;;;;;;12.67;95.37;99866.16;2097616;28;20044;-75
2023/01/01 01:10:51;;;;;;;8.13;4.40;;;;;;;12.64;95.04;99865.97;2111915;28;20414;-75
2023/01/01 01:11:53;;;;;;;8.45;4.10;;;;;;;12.66;95.33;99852.97;2114173;28;20023;-75
2023/01/01 01:12:56;;;;;;;7.70;3.88;;;;;;;12.63;95.03;99857.09;2114072;28;20038;-75
2023/01/01 01:14:01;;;;;;;8.38;4.10;;;;;;;12.61;94.99;99855.78;2097167;28;20396;-75
2023/01/01 01:15:06;;;;;;;7.55;4.40;;;;;;;12.50;94.46;99847.19;2081727;28;20473;-75
2023/01/01 01:16:17;;;;;;;9.07;4.57;;;;;;;12.47;94.72;99856.69;2089947;28;20039;-75
2023/01/01 01:17:20;;;;;;;9.27;4.28;;;;;;;12.47;94.89;99858.59;2090499;28;20037;-75
2023/01/01 01:18:22;;;;;;;9.35;4.57;;;;;;;12.47;94.94;99851.28;2096976;28;20052;-76
2023/01/01 01:19:25;;;;;;;11.27;4.55;;;;;;;12.49;95.25;99841.00;2105278;28;20542;-75
2023/01/01 01:20:30;;;;;;;10.93;4.82;;;;;;;12.53;95.45;99843.88;2103936;28;20039;-75
2023/01/01 01:21:34;;;;;;;8.75;4.40;;;;;;;12.55;95.26;99844.38;2113169;28;20035;-74
2023/01/01 01:22:36;;;;;;;10.13;4.22;;;;;;;12.57;95.34;99833.25;2096773;28;20115;-73
2023/01/01 01:23:41;;;;;;;9.65;4.75;;;;;;;12.56;95.21;99837.88;2082970;28;20038;-73
2023/01/01 01:24:44;;;;;;;9.63;4.28;;;;;;;12.55;95.14;99846.25;2098954;28;20048;-73
2023/01/01 01:25:47;;;;;;;11.18;5.43;;;;;;;12.55;95.01;99848.94;2089745;28;20037;-73
2023/01/01 01:26:49;;;;;;;10.43;5.60;;;;;;;12.55;95.19;99847.06;2098678;28;20040;-74
2023/01/01 01:27:54;;;;;;;9.25;5.25;;;;;;;12.53;94.98;99841.16;2097950;28;20040;-74
2023/01/01 01:29:00;;;;;;;10.30;4.20;;;;;;;12.53;95.40;99841.16;2098650;28;20044;-74
2023/01/01 01:30:03;;;;;;;6.45;4.00;;;;;;;12.59;95.39;99842.63;2098567;28;20472;-73
2023/01/01 01:31:05;;;;;;;6.68;4.07;;;;;;;12.59;95.70;99837.25;2106394;28;20719;-73
2023/01/01 01:32:10;;;;;;;7.22;3.92;;;;;;;12.59;95.69;99848.03;2097816;28;20037;-75
2023/01/01 01:33:12;;;;;;;11.88;4.75;;;;;;;12.60;95.51;99836.13;2090435;28;20456;-74
2023/01/01 01:34:17;;;;;;;9.68;4.50;;;;;;;12.62;95.25;99838.53;2090355;28;20527;-73
2023/01/01 01:35:20;;;;;;;11.02;4.35;;;;;;;12.63;95.42;99837.41;2089496;28;20049;-73
2023/01/01 01:36:22;;;;;;;8.52;4.35;;;;;;;12.64;95.60;99842.53;2089830;28;20045;-73
2023/01/01 01:37:25;;;;;;;6.78;3.70;;;;;;;12.64;95.08;99836.31;2090001;28;20063;-74
2023/01/01 01:38:27;;;;;;;6.95;3.72;;;;;;;12.65;95.09;99837.91;2098211;28;20036;-74
2023/01/01 01:39:30;;;;;;;12.50;4.03;;;;;;;12.66;94.80;99834.88;2106527;28;20047;-75
2023/01/01 01:40:32;;;;;;;9.68;4.70;;;;;;;12.69;94.82;99845.06;2114539;28;20042;-74
2023/01/01 01:41:40;;;;;;;8.57;3.70;;;;;;;12.69;94.81;99845.06;2097913;28;20040;-74
2023/01/01 01:42:45;;;;;;;7.28;3.88;;;;;;;12.70;94.78;99835.88;2083183;28;20512;-73
2023/01/01 01:44:04;;;;;;;9.55;4.05;;;;;;;12.74;94.59;99831.44;2099205;28;20040;-73
2023/01/01 01:45:09;;;;;;;10.15;4.40;;;;;;;12.73;94.11;99824.44;2091927;28;20037;-74
2023/01/01 01:46:18;;;;;;;12.80;4.38;;;;;;;12.73;94.12;99819.06;2082436;28;20413;-73
2023/01/01 01:47:42;;;;;;;6.72;3.10;;;;;;;12.70;93.97;99811.63;2084200;28;20033;-74
2023/01/01 01:48:49;;;;;;;9.32;2.90;;;;;;;12.72;93.90;99827.47;2093728;28;20040;-74
2023/01/01 01:50:18;;;;;;;4.57;2.22;;;;;;;12.72;93.82;99795.09;2107217;28;20024;-74
2023/01/01 01:51:27;;;;;;;5.95;2.03;;;;;;;12.76;93.72;99826.53;2104318;28;20453;-74
2023/01/01 01:52:32;;;;;;;5.85;2.10;;;;;;;12.81;93.65;99824.81;2106232;28;20049;-74
2023/01/01 01:53:42;;;;;;;6.22;2.17;;;;;;;12.81;93.46;99824.81;2099375;28;20036;-74
2023/01/01 01:54:46;;;;;;;4.10;1.73;;;;;;;12.83;93.27;99822.59;2107376;28;20411;-74
2023/01/01 01:55:56;;;;;;;3.42;2.45;;;;;;;12.87;93.36;99832.47;2098106;28;20037;-74
2023/01/01 01:57:03;;;;;;;3.78;1.73;;;;;;;12.88;92.93;99825.16;2100416;28;20044;-74
2023/01/01 01:58:08;;;;;;;4.05;1.75;;;;;;;12.91;92.60;99827.22;2101332;28;20542;-73
2023/01/01 01:59:13;;;;;;;6.13;1.90;;;;;;;12.91;92.41;99832.63;2116330;28;20035;-74
2023/01/01 02:00:18;;;;;;;3.90;1.77;;;;;;;12.94;92.11;99815.81;2117234;28;20344;-74
2023/01/01 02:01:20;;;;;;;4.30;1.70;;;;;;;12.97;91.57;99817.91;2099252;28;20036;-74
2023/01/01 02:02:35;;;;;;;6.10;1.60;;;;;;;13.00;91.17;99828.06;2083664;28;20048;-74
2023/01/01 02:03:50;;;;;;;3.35;1.70;;;;;;;13.03;90.67;99822.03;2086583;28;20370;-74
2023/01/01 02:04:53;;;;;;;5.30;1.70;;;;;;;13.06;90.65;99829.50;2088890;28;20038;-73
2023/01/01 02:05:56;;;;;;;3.72;1.40;;;;;;;13.07;89.97;99823.00;2099832;28;20395;-74
2023/01/01 02:06:59;;;;;;;3.92;1.75;;;;;;;13.10;89.84;99827.78;2108082;28;20036;-74
2023/01/01 02:08:03;;;;;;;4.13;1.70;;;;;;;13.13;89.54;99820.97;2099671;28;20040;-74
2023/01/01 02:09:07;;;;;;;5.95;1.88;;;;;;;13.14;89.31;99820.63;2098832;28;20040;-75
2023/01/01 02:10:10;;;;;;;3.10;1.70;;;;;;;13.14;89.16;99822.53;2099161;28;20067;-75
2023/01/01 02:11:12;;;;;;;2.65;1.85;;;;;;;13.13;88.71;99832.53;2091564;28;20036;-75
2023/01/01 02:12:16;;;;;;;3.65;1.70;;;;;;;13.16;88.36;99821.13;2099557;28;20036;-74
2023/01/01 02:13:19;;;;;;;4.72;1.88;;;;;;;13.17;88.19;99821.91;2091443;28;20048;-73
2023/01/01 02:14:21;;;;;;;5.85;1.60;;;;;;;13.19;88.21;99815.09;2091748;28;20053;-72
2023/01/01 02:15:27;;;;;;;4.10;1.55;;;;;;;13.20;87.83;99822.06;2091011;28;20460;-73
2023/01/01 02:16:41;;;;;;;4.75;1.70;;;;;;;13.22;87.60;99836.06;2077125;28;20060;-73
2023/01/01 02:18:12;;;;;;;4.55;1.75;;;;;;;13.21;87.36;99822.91;2081870;28;20095;-72
2023/01/01 02:19:19;;;;;;;3.95;1.52;;;;;;;13.21;86.85;99812.09;2087816;28;20492;-73
2023/01/01 02:20:29;;;;;;;3.70;1.70;;;;;;;13.21;86.97;99802.09;2082793;28;20052;-75
2023/01/01 02:21:37;;;;;;;4.70;1.70;;;;;;;13.19;87.06;99798.91;2090266;28;20045;-74
2023/01/01 02:23:00;;;;;;;3.95;1.75;;;;;;;13.20;86.74;99794.28;2096630;28;20060;-73
2023/01/01 02:24:08;;;;;;;3.67;1.70;;;;;;;13.21;86.33;99817.50;2092222;28;20076;-74
2023/01/01 02:25:27;;;;;;;4.78;1.65;;;;;;;13.20;86.54;99811.28;2092303;28;20052;-75
2023/01/01 02:26:42;;;;;;;3.70;1.88;;;;;;;13.18;86.02;99802.72;2098197;28;20036;-75
2023/01/01 02:27:53;;;;;;;4.78;1.70;;;;;;;13.20;85.87;99803.19;2094165;28;20095;-75
2023/01/01 02:29:05;;;;;;;3.20;1.40;;;;;;;13.22;85.23;99810.97;2097666;28;20055;-74
2023/01/01 02:30:09;;;;;;;4.70;1.55;;;;;;;13.21;85.06;99807.50;2084921;28;20041;-75
2023/01/01 02:31:18;;;;;;;3.22;1.40;;;;;;;13.20;84.96;99800.47;2090627;28;20044;-75
2023/01/01 02:32:25;;;;;;;4.88;1.73;;;;;;;13.23;84.80;99794.44;2081626;28;20535;-75
2023/01/01 02:33:28;;;;;;;3.35;1.63;;;;;;;13.23;84.65;99789.06;2083047;28;20032;-76
2023/01/01 02:34:36;;;;;;;4.57;1.77;;;;;;;13.25;84.51;99802.28;2090288;28;20041;-75
2023/01/01 02:35:41;;;;;;;4.38;1.70;;;;;;;13.27;84.29;99800.03;2092007;28;20032;-73
2023/01/01 02:36:51;;;;;;;3.25;1.67;;;;;;;13.28;84.14;99795.47;2092535;28;20033;-75
2023/01/01 02:37:58;;;;;;;4.10;1.65;;;;;;;13.27;84.00;99802.75;2096783;28;20036;-76
2023/01/01 02:39:06;;;;;;;3.38;1.83;;;;;;;13.29;83.86;99802.44;2080388;28;20569;-75
2023/01/01 02:40:11;;;;;;;6.80;1.50;;;;;;;13.30;83.62;99798.63;2085480;28;20041;-75
2023/01/01 02:41:19;;;;;;;3.63;1.48;;;;;;;13.33;83.08;99814.19;2089675;28;20183;-75
2023/01/01 02:42:25;;;;;;;3.92;1.42;;;;;;;13.35;82.71;99787.69;2085998;28;20041;-75
2023/01/01 02:43:28;;;;;;;4.85;1.85;;;;;;;13.36;82.37;99810.88;2098407;28;20499;-75
2023/01/01 02:44:33;;;;;;;3.40;1.65;;;;;;;13.37;81.98;99813.28;2081914;28;20562;-75
2023/01/01 02:45:35;;;;;;;3.80;1.48;;;;;;;13.38;81.66;99820.25;2099215;28;20055;-75
2023/01/01 02:46:38;;;;;;;6.38;2.47;;;;;;;13.41;81.79;99810.72;2100276;28;20039;-75
2023/01/01 02:47:41;;;;;;;5.18;1.92;;;;;;;13.42;81.42;99799.59;2096262;28;20048;-76
2023/01/01 02:48:46;;;;;;;5.35;1.65;;;;;;;13.45;80.90;99806.28;2083628;28;20508;-75
2023/01/01 02:49:59;;;;;;;3.75;2.10;;;;;;;13.45;80.97;99807.06;2091612;28;20044;-76
2023/01/01 02:51:13;;;;;;;5.10;1.80;;;;;;;13.43;81.03;99816.63;2097783;28;20044;-76
2023/01/01 02:52:21;;;;;;;3.70;1.50;;;;;;;13.43;81.05;99809.31;2101715;28;20071;-76
2023/01/01 02:53:32;;;;;;;4.35;1.73;;;;;;;13.43;80.94;99819.31;2113300;28;20043;-76
2023/01/01 02:54:56;;;;;;;4.47;1.52;;;;;;;13.42;80.57;99805.00;2113982;28;20031;-75
2023/01/01 02:56:03;;;;;;;4.78;1.73;;;;;;;13.40;80.39;99806.44;2113425;28;20054;-71
2023/01/01 02:57:26;;;;;;;6.93;2.03;;;;;;;13.41;80.16;99808.03;2105897;28;20519;-71
2023/01/01 03:00:48;;;;;;;4.72;2.05;;;;;;;13.42;80.57;99790.72;2109694;28;20040;-71
2023/01/01 03:02:08;;;;;;;6.13;2.05;;;;;;;13.43;80.15;99786.91;2097887;28;20048;-71
2023/01/01 03:03:15;;;;;;;4.93;1.88;;;;;;;13.45;79.83;99781.97;2094775;28;20048;-71
2023/01/01 03:04:19;;;;;;;3.00;1.77;;;;;;;13.46;79.35;99797.06;2089937;28;20520;-71
2023/01/01 03:07:16;;;;;;;5.15;1.70;;;;;;;13.45;79.29;99800.88;2111996;28;20043;-71
2023/01/01 03:08:29;;;;;;;5.85;1.77;;;;;;;13.45;79.24;99784.69;2098159;28;20504;-71
2023/01/01 03:09:40;;;;;;;5.53;2.10;;;;;;;13.47;79.06;99795.19;2107515;28;20054;-71
2023/01/01 03:10:45;;;;;;;5.30;2.22;;;;;;;13.50;78.58;99798.03;2114591;28;20047;-71
2023/01/01 03:12:09;;;;;;;4.60;2.10;;;;;;;13.51;78.54;99794.22;2114079;28;20051;-71
2023/01/01 03:13:19;;;;;;;3.78;1.83;;;;;;;13.49;78.39;99806.44;2111799;28;20411;-70
2023/01/01 03:14:37;;;;;;;5.20;1.80;;;;;;;13.50;78.25;99802.66;2090351;28;20067;-71
2023/01/01 03:15:58;;;;;;;4.82;1.88;;;;;;;13.54;78.05;99801.69;2095664;28;20056;-70
2023/01/01 03:17:25;;;;;;;9.02;2.20;;;;;;;13.55;77.93;99805.19;2083939;28;20405;-71
2023/01/01 03:18:46;;;;;;;6.75;2.15;;;;;;;13.55;77.78;99805.19;2083647;28;20048;-72
2023/01/01 03:19:52;;;;;;;6.43;2.10;;;;;;;13.56;77.65;99804.09;2100899;28;20411;-72
2023/01/01 03:21:00;;;;;;;4.45;1.90;;;;;;;13.56;77.46;99807.56;2098791;28;20033;-72
2023/01/01 03:22:03;;;;;;;3.88;1.90;;;;;;;13.55;77.42;99814.06;2099953;28;20447;-72
2023/01/01 03:23:28;;;;;;;11.50;2.10;;;;;;;13.54;77.57;99812.50;2098988;28;20040;-72
2023/01/01 03:24:54;;;;;;;11.35;2.03;;;;;;;13.53;77.30;99802.81;2084033;28;20567;-72
2023/01/01 03:26:01;;;;;;;5.70;1.77;;;;;;;13.58;76.72;99820.75;2084834;28;20440;-72
2023/01/01 03:27:19;;;;;;;3.63;1.90;;;;;;;13.61;76.77;99820.13;2099693;28;20036;-72
2023/01/01 03:28:31;;;;;;;2.35;1.70;;;;;;;13.64;76.47;99830.28;2094842;28;20041;-72
2023/01/01 03:29:41;;;;;;;6.65;2.55;;;;;;;13.65;76.38;99830.00;2094065;28;20043;-72
2023/01/01 03:30:49;;;;;;;5.75;1.70;;;;;;;13.67;75.90;99835.84;2099985;28;20036;-72
2023/01/01 03:31:56;;;;;;;6.45;2.03;;;;;;;13.69;75.96;99832.84;2098831;28;20036;-72
2023/01/01 03:33:07;;;;;;;4.57;1.80;;;;;;;13.70;76.17;99828.25;2099679;28;20028;-72
2023/01/01 03:34:16;;;;;;;4.38;2.05;;;;;;;13.68;75.75;99837.47;2092051;28;20512;-72
2023/01/01 03:35:19;;;;;;;;;;;;;;;13.68;75.65;99829.34;2100451;28;20051;-72
2023/01/01 03:36:50;;;;;;;4.97;2.15;;;;;;;13.68;75.94;99833.94;2098688;28;19919;-72
2023/01/01 03:37:56;;;;;;;5.60;2.10;;;;;;;13.67;75.75;99819.66;2096588;28;20040;-72
2023/01/01 03:39:05;;;;;;;6.60;2.00;;;;;;;13.68;75.53;99815.84;2107345;28;20039;-72
2023/01/01 03:40:20;;;;;;;3.85;2.08;;;;;;;13.71;75.36;99819.00;2107315;28;20031;-72
2023/01/01 03:41:35;;;;;;;4.38;1.85;;;;;;;13.71;75.00;99814.41;2100467;28;20045;-72
2023/01/01 03:42:48;;;;;;;8.50;2.17;;;;;;;13.70;75.17;99809.31;2092370;28;20037;-72
2023/01/01 03:44:45;;;;;;;3.95;1.58;;;;;;;13.67;75.34;99813.44;2094129;28;20037;-72
2023/01/01 03:45:50;;;;;;;5.97;1.70;;;;;;;13.68;74.63;99815.03;2081862;28;20060;-72
2023/01/01 03:46:53;;;;;;;7.97;2.33;;;;;;;13.68;74.55;99821.25;2094619;28;20036;-72
2023/01/01 03:47:56;;;;;;;7.32;2.00;;;;;;;13.68;74.59;99820.44;2099296;28;20383;-72
2023/01/01 03:49:00;;;;;;;6.13;1.88;;;;;;;13.71;74.60;99827.13;2098735;28;20037;-72
2023/01/01 03:50:06;;;;;;;11.80;2.50;;;;;;;13.72;74.39;99820.63;2091974;28;20033;-72
2023/01/01 03:51:17;;;;;;;3.20;1.50;;;;;;;13.74;73.77;99818.38;2082318;28;20036;-72
2023/01/01 03:52:30;;;;;;;4.78;1.75;;;;;;;13.75;73.83;99812.66;2085904;28;20037;-72
2023/01/01 03:53:41;;;;;;;4.05;1.65;;;;;;;13.76;73.57;99816.16;2100485;28;20032;-72
2023/01/01 03:54:54;;;;;;;4.90;2.33;;;;;;;13.75;73.27;99817.28;2098601;28;20028;-72
2023/01/01 03:56:11;;;;;;;8.88;1.80;;;;;;;13.74;73.35;99824.56;2085646;28;20108;-72
2023/01/01 03:57:44;;;;;;;6.50;2.33;;;;;;;13.74;73.44;99826.47;2094854;28;20059;-72
2023/01/01 03:59:13;;;;;;;6.53;2.20;;;;;;;13.74;73.14;99826.47;2080013;28;20092;-72
2023/01/01 04:00:18;;;;;;;6.22;2.13;;;;;;;13.76;73.14;99827.75;2085451;28;20048;-72
2023/01/01 04:01:26;;;;;;;3.25;1.92;;;;;;;13.78;72.85;99824.75;2099209;28;20439;-71
2023/01/01 04:02:33;;;;;;;8.07;2.10;;;;;;;13.78;72.63;99819.34;2106935;28;20585;-72
2023/01/01 04:03:37;;;;;;;4.00;1.90;;;;;;;13.81;72.60;99829.53;2098680;28;20040;-72
2023/01/01 04:04:40;;;;;;;5.72;2.65;;;;;;;13.84;72.63;99831.56;2082738;28;20041;-72
2023/01/01 04:05:49;;;;;;;3.47;1.65;;;;;;;13.84;72.64;99845.06;2091025;28;20045;-72
2023/01/01 04:06:51;;;;;;;6.68;2.10;;;;;;;13.84;72.36;99836.97;2106459;28;20042;-72
2023/01/01 04:07:59;;;;;;;8.25;2.10;;;;;;;13.83;72.13;99832.69;2106501;28;20035;-72
2023/01/01 04:09:04;;;;;;;6.38;2.15;;;;;;;13.82;72.08;99834.59;2098783;28;20040;-72
2023/01/01 04:10:15;;;;;;;3.70;1.88;;;;;;;13.82;71.96;99833.81;2099063;28;20032;-72
2023/01/01 04:12:49;;;;;;;4.68;1.70;;;;;;;13.85;71.80;99830.47;2107082;28;20036;-72
2023/01/01 04:13:54;;;;;;;5.15;2.13;;;;;;;13.84;71.39;99839.66;2106799;28;20039;-72
2023/01/01 04:14:58;;;;;;;6.90;1.90;;;;;;;13.84;71.38;99848.59;2090644;28;20032;-72
2023/01/01 04:16:00;;;;;;;8.80;1.85;;;;;;;13.86;71.24;99842.88;2091216;28;20037;-72
2023/01/01 04:17:06;;;;;;;6.45;1.75;;;;;;;13.88;71.56;99846.06;2082177;28;20037;-72
2023/01/01 04:18:09;;;;;;;4.60;1.73;;;;;;;13.89;71.03;99837.63;2083263;28;20040;-72
2023/01/01 04:19:11;;;;;;;7.32;2.25;;;;;;;13.89;70.99;99842.22;2098517;28;20419;-72
2023/01/01 04:20:13;;;;;;;4.13;1.80;;;;;;;13.87;71.28;99839.03;2107003;28;20035;-72
2023/01/01 04:21:18;;;;;;;6.97;2.65;;;;;;;13.87;70.89;99839.03;2107167;28;20487;-72
2023/01/01 04:22:23;;;;;;;7.75;2.15;;;;;;;13.89;70.86;99842.22;2098244;28;20040;-72
2023/01/01 04:23:25;;;;;;;5.28;1.95;;;;;;;13.89;70.91;99837.63;2090589;28;20036;-72
2023/01/01 04:24:30;;;;;;;5.85;1.67;;;;;;;13.93;70.78;99843.16;2098683;28;20037;-72
2023/01/01 04:25:32;;;;;;;6.40;1.90;;;;;;;13.93;70.61;99842.38;2098570;28;20036;-72
2023/01/01 04:26:37;;;;;;;8.20;1.70;;;;;;;13.94;70.96;99835.88;2089977;28;20049;-72
2023/01/01 04:27:44;;;;;;;5.53;1.88;;;;;;;13.92;70.18;99849.69;2091695;28;20036;-72
2023/01/01 04:28:47;;;;;;;14.00;2.28;;;;;;;13.94;70.58;99838.59;2091771;28;20037;-73
2023/01/01 04:29:50;;;;;;;6.38;2.30;;;;;;;13.93;70.14;99845.88;2106948;28;20027;-72
2023/01/01 04:30:54;;;;;;;6.20;2.28;;;;;;;13.91;70.41;99846.22;2098396;28;20033;-72
2023/01/01 04:32:01;;;;;;;8.45;1.77;;;;;;;13.91;70.55;99838.09;2091796;28;20491;-72
2023/01/01 04:33:03;;;;;;;4.47;1.80;;;;;;;13.90;70.58;99843.81;2106584;28;20420;-72
2023/01/01 04:34:05;;;;;;;5.13;1.80;;;;;;;13.88;70.54;99852.25;2106711;28;20028;-73
2023/01/01 04:35:08;;;;;;;4.60;1.60;;;;;;;13.88;70.56;99841.44;2098059;28;20033;-72
2023/01/01 04:36:13;;;;;;;5.32;1.50;;;;;;;13.91;69.82;99845.41;2098531;28;20040;-72
2023/01/01 04:37:15;;;;;;;4.57;1.80;;;;;;;13.92;70.15;99844.28;2098470;28;20055;-72
2023/01/01 04:38:20;;;;;;;8.50;2.10;;;;;;;13.91;70.35;99843.50;2098826;28;20036;-72
2023/01/01 04:39:23;;;;;;;9.50;2.17;;;;;;;13.88;69.97;99846.06;2090317;28;20037;-72
2023/01/01 04:40:26;;;;;;;5.38;2.28;;;;;;;13.88;70.30;99830.63;2098906;28;20032;-72
2023/01/01 04:41:28;;;;;;;5.60;1.73;;;;;;;13.88;69.96;99835.25;2098323;28;20036;-72
2023/01/01 04:42:30;;;;;;;13.77;2.10;;;;;;;13.90;69.89;99828.41;2098240;28;20044;-72
2023/01/01 04:43:32;;;;;;;3.78;1.55;;;;;;;13.94;69.77;99822.38;2098594;28;20028;-72
2023/01/01 04:44:35;;;;;;;7.35;2.00;;;;;;;13.97;69.58;99844.16;2090148;28;20052;-73
2023/01/01 04:45:40;;;;;;;10.80;1.73;;;;;;;13.99;69.49;99830.31;2098681;28;20033;-72
2023/01/01 04:46:44;;;;;;;6.93;1.98;;;;;;;14.00;69.40;99832.69;2107214;28;20106;-72
2023/01/01 04:47:46;;;;;;;5.70;2.10;;;;;;;14.00;69.42;99832.69;2098601;28;20036;-72
2023/01/01 04:48:48;;;;;;;6.03;1.75;;;;;;;14.00;69.37;99821.88;2081870;28;20040;-72
2023/01/01 04:49:57;;;;;;;8.48;1.90;;;;;;;13.99;69.43;99841.13;2090940;28;20040;-72
2023/01/01 04:51:03;;;;;;;6.43;1.95;;;;;;;14.02;69.38;99835.84;2107249;28;20044;-72
2023/01/01 04:52:08;;;;;;;5.78;1.63;;;;;;;13.96;69.27;99831.72;2107750;28;20071;-72
2023/01/01 04:53:13;;;;;;;6.20;2.00;;;;;;;13.95;69.31;99824.75;2097826;28;20056;-72
2023/01/01 04:54:16;;;;;;;5.32;2.00;;;;;;;13.96;69.16;99842.53;2091286;28;20044;-72
2023/01/01 04:55:19;;;;;;;12.50;2.40;;;;;;;13.94;68.78;99833.19;2106690;28;20058;-73
2023/01/01 04:56:24;;;;;;;5.60;1.98;;;;;;;13.94;69.01;99833.19;2114473;28;20058;-73
2023/01/01 04:57:32;;;;;;;5.40;1.90;;;;;;;13.94;69.12;99842.06;2107081;28;20044;-73
2023/01/01 04:58:36;;;;;;;5.97;1.85;;;;;;;13.91;69.14;99831.91;2114018;28;20055;-73
2023/01/01 04:59:40;;;;;;;3.47;1.77;;;;;;;13.91;68.69;99842.72;2114923;28;20062;-72
2023/01/01 05:00:42;;;;;;;5.53;1.60;;;;;;;13.94;68.64;99838.59;2114926;28;20043;-72
2023/01/01 05:01:44;;;;;;;11.57;2.05;;;;;;;13.97;68.36;99835.25;2098086;28;20051;-72
2023/01/01 05:02:46;;;;;;;2.28;1.45;;;;;;;13.99;68.42;99844.59;2098332;28;20044;-72
2023/01/01 05:03:49;;;;;;;5.05;1.50;;;;;;;13.99;68.50;99852.72;2098032;28;20025;-72
2023/01/01 05:04:51;;;;;;;13.38;1.90;;;;;;;13.98;67.80;99851.13;2098391;28;20028;-71
2023/01/01 05:06:24;;;;;;;3.83;2.08;;;;;;;14.00;68.10;99853.53;2097876;28;20495;-71
2023/01/01 05:07:26;;;;;;;3.75;2.03;;;;;;;13.98;68.06;99847.63;2096491;28;20387;-72
2023/01/01 05:08:51;;;;;;;5.80;1.90;;;;;;;13.97;68.43;99854.16;2098343;28;20047;-72
2023/01/01 05:09:54;;;;;;;5.03;1.88;;;;;;;13.95;68.22;99853.69;2103267;28;20398;-72
2023/01/01 05:11:02;;;;;;;8.82;2.00;;;;;;;13.95;67.86;99857.16;2106387;28;20047;-72
2023/01/01 05:12:10;;;;;;;4.03;1.90;;;;;;;13.94;68.03;99860.22;2107672;28;20472;-72
2023/01/01 05:13:14;;;;;;;4.93;1.58;;;;;;;13.92;68.17;99844.28;2098706;28;20444;-71
2023/01/01 05:14:18;;;;;;;8.55;1.98;;;;;;;13.92;67.96;99849.69;2107333;28;20032;-72
2023/01/01 05:15:20;;;;;;;5.10;1.90;;;;;;;13.93;67.80;99859.38;2114695;28;20419;-72
2023/01/01 05:16:46;;;;;;;5.10;1.77;;;;;;;13.95;67.77;99851.75;2098679;28;20043;-72
2023/01/01 05:17:51;;;;;;;7.68;2.30;;;;;;;13.95;67.83;99865.28;2108757;28;20036;-72
2023/01/01 05:18:53;;;;;;;4.55;2.15;;;;;;;13.96;67.69;99857.97;2090331;28;20393;-71
2023/01/01 05:19:59;;;;;;;6.65;1.73;;;;;;;13.91;67.71;99861.63;2090143;28;20464;-71
2023/01/01 05:21:04;;;;;;;6.13;1.83;;;;;;;13.89;67.52;99870.03;2107498;28;20059;-71